Time;durP1;ratioP1;P1;durP2;ratioP2;P2;SDS_P1;SDS_P2;PMS_P1;PMS_P2;Temp;Humidity;BMP_temperature;BMP_pressure;BME280_temperature;BME280_humidity;BME280_pressure;Samples;Min_cycle;Max_cycle;Signal;HPM_P1;HPM_P2
2022/07/22 00:02:13;;;;;;;6.47;6.18;;;;;;;-143.83;100.00;62900.06;5111969;28;20027;-62
2022/07/22 00:04:38;;;;;;;6.60;6.30;;;;;;;-143.83;100.00;62900.06;5112609;28;20068;-62
2022/07/22 00:07:05;;;;;;;6.50;6.20;;;;;;;-143.83;100.00;62900.06;5112842;28;20027;-61
2022/07/22 00:09:30;;;;;;;6.90;6.60;;;;;;;-143.83;100.00;62900.06;5112356;28;20028;-62
2022/07/22 00:11:56;;;;;;;6.55;6.25;;;;;;;-143.83;100.00;62900.06;5111415;28;20106;-62
2022/07/22 00:14:22;;;;;;;6.70;6.40;;;;;;;-143.83;100.00;62900.06;5107557;28;20020;-61
2022/07/22 00:16:47;;;;;;;6.40;6.10;;;;;;;-143.83;100.00;62900.06;5112655;28;20026;-61
2022/07/22 00:19:13;;;;;;;6.25;6.00;;;;;;;-143.83;100.00;62900.06;5099479;28;20504;-61
2022/07/22 00:21:38;;;;;;;6.60;6.30;;;;;;;-143.83;100.00;62900.06;5111576;28;20026;-61
2022/07/22 00:24:04;;;;;;;6.50;6.20;;;;;;;-143.83;100.00;62900.06;5112277;28;20024;-61
2022/07/22 00:26:30;;;;;;;6.80;6.50;;;;;;;-143.83;100.00;62900.06;5112329;28;20050;-62
2022/07/22 00:28:55;;;;;;;6.75;6.45;;;;;;;-143.83;100.00;62900.06;5109964;28;20059;-62
2022/07/22 00:31:21;;;;;;;6.60;6.30;;;;;;;-143.83;100.00;62900.06;5112848;27;20457;-60
2022/07/22 00:33:46;;;;;;;6.40;6.10;;;;;;;-143.83;100.00;62900.06;5112069;28;20035;-62
2022/07/22 00:36:12;;;;;;;6.50;6.20;;;;;;;-143.83;100.00;62900.06;5100096;28;20024;-62
2022/07/22 00:38:38;;;;;;;6.60;6.30;;;;;;;-143.83;100.00;62900.06;5110893;28;20016;-62
2022/07/22 00:41:04;;;;;;;6.70;6.40;;;;;;;-143.83;100.00;62900.06;5105279;28;20047;-61
2022/07/22 00:43:53;;;;;;;6.55;6.25;;;;;;;-143.83;100.00;62900.06;5112112;28;20033;-61
2022/07/22 00:46:19;;;;;;;6.65;6.35;;;;;;;-143.83;100.00;62900.06;5094209;28;20507;-61
2022/07/22 00:48:44;;;;;;;6.57;6.28;;;;;;;-143.83;100.00;62900.06;5112144;28;20035;-61
2022/07/22 00:51:10;;;;;;;6.40;6.10;;;;;;;-143.83;100.00;62900.06;5112032;28;20690;-62
2022/07/22 00:53:36;;;;;;;6.80;6.50;;;;;;;-143.83;100.00;62900.06;5111798;28;20544;-62
2022/07/22 00:56:03;;;;;;;6.60;6.30;;;;;;;-143.83;100.00;62900.06;5112074;28;20125;-61
2022/07/22 00:58:29;;;;;;;6.57;6.28;;;;;;;-143.83;100.00;62900.06;5112240;28;20031;-62
2022/07/22 01:00:54;;;;;;;6.60;6.30;;;;;;;-143.83;100.00;62900.06;5106090;28;20024;-63
2022/07/22 01:03:20;;;;;;;6.68;6.38;;;;;;;-143.83;100.00;62900.06;5094890;28;20036;-62
2022/07/22 01:05:45;;;;;;;6.57;6.28;;;;;;;-143.83;100.00;62900.06;5112121;28;20387;-62
2022/07/22 01:08:12;;;;;;;6.60;6.30;;;;;;;-143.83;100.00;62900.06;5111804;28;20023;-62
2022/07/22 01:10:37;;;;;;;6.50;6.20;;;;;;;-143.83;100.00;62900.06;5105187;28;20479;-62
2022/07/22 01:13:03;;;;;;;6.70;6.40;;;;;;;-143.83;100.00;62900.06;5107353;28;20045;-62
2022/07/22 01:15:28;;;;;;;6.45;6.15;;;;;;;-143.83;100.00;62900.06;5111968;28;20502;-62
2022/07/22 01:17:54;;;;;;;6.55;6.25;;;;;;;-143.83;100.00;62900.06;5111735;28;20028;-61
2022/07/22 01:20:19;;;;;;;6.63;6.32;;;;;;;-143.83;100.00;62900.06;5103358;28;20073;-62
2022/07/22 01:22:45;;;;;;;6.68;6.38;;;;;;;-143.83;100.00;62900.06;5120697;28;20039;-62
2022/07/22 01:25:11;;;;;;;6.40;6.10;;;;;;;-143.83;100.00;62900.06;5111697;28;20034;-62
2022/07/22 01:27:37;;;;;;;6.60;6.30;;;;;;;-143.83;100.00;62900.06;5103779;28;20062;-61
2022/07/22 01:30:06;;;;;;;6.55;6.25;;;;;;;-143.83;100.00;62900.06;5111825;28;20055;-62
2022/07/22 01:32:31;;;;;;;6.60;6.30;;;;;;;-143.83;100.00;62900.06;5099543;28;20023;-61
2022/07/22 01:34:57;;;;;;;6.60;6.30;;;;;;;-143.83;100.00;62900.06;5115475;28;20425;-62
2022/07/22 01:37:22;;;;;;;6.57;6.28;;;;;;;-143.83;100.00;62900.06;5115984;27;20055;-61
2022/07/22 01:39:49;;;;;;;6.60;6.30;;;;;;;-143.83;100.00;62900.06;5115559;28;20146;-62
2022/07/22 01:42:14;;;;;;;6.65;6.35;;;;;;;-143.83;100.00;62900.06;5116930;27;20483;-60
2022/07/22 01:44:40;;;;;;;6.55;6.25;;;;;;;-143.83;100.00;62900.06;5114128;28;20122;-61
2022/07/22 01:47:07;;;;;;;6.50;6.20;;;;;;;-143.83;100.00;62900.06;5115370;28;20019;-60
2022/07/22 01:49:34;;;;;;;6.70;6.40;;;;;;;-143.83;100.00;62900.06;5102052;28;20111;-61
2022/07/22 01:52:00;;;;;;;6.50;6.20;;;;;;;-143.83;100.00;62900.06;5113397;28;20521;-62
2022/07/22 01:54:25;;;;;;;6.57;6.28;;;;;;;-143.83;100.00;62900.06;5118076;27;20032;-61
2022/07/22 01:56:51;;;;;;;6.47;6.18;;;;;;;-143.83;100.00;62900.06;5115108;28;20058;-61
2022/07/22 01:59:17;;;;;;;6.55;6.25;;;;;;;-143.83;100.00;62900.06;5115158;28;20044;-62
2022/07/22 02:01:42;;;;;;;6.53;6.22;;;;;;;-143.83;100.00;62900.06;5115037;28;20450;-62
2022/07/22 02:04:08;;;;;;;6.50;6.20;;;;;;;-143.83;100.00;62900.06;5115024;28;20046;-61
2022/07/22 02:06:33;;;;;;;6.60;6.30;;;;;;;-143.83;100.00;62900.06;5112102;28;20039;-62
2022/07/22 02:08:59;;;;;;;6.63;6.32;;;;;;;-143.83;100.00;62900.06;5113559;28;20047;-62
2022/07/22 02:11:24;;;;;;;6.60;6.30;;;;;;;-143.83;100.00;62900.06;5107481;27;20102;-62
2022/07/22 02:13:50;;;;;;;6.70;6.40;;;;;;;-143.83;100.00;62900.06;5110739;27;20027;-61
2022/07/22 02:16:16;;;;;;;6.28;6.03;;;;;;;-143.83;100.00;62900.06;5103166;28;20024;-62
2022/07/22 02:18:41;;;;;;;6.47;6.18;;;;;;;-143.83;100.00;62900.06;5122749;27;20493;-62
2022/07/22 02:21:07;;;;;;;6.47;6.18;;;;;;;-143.83;100.00;62900.06;5114546;28;20058;-62
2022/07/22 02:23:32;;;;;;;6.70;6.40;;;;;;;-143.83;100.00;62900.06;5114385;28;20395;-61
2022/07/22 02:25:58;;;;;;;6.65;6.35;;;;;;;-143.83;100.00;62900.06;5114510;28;20028;-60
2022/07/22 02:28:23;;;;;;;6.72;6.43;;;;;;;-143.83;100.00;62900.06;5113768;27;20032;-62
2022/07/22 02:30:49;;;;;;;6.50;6.20;;;;;;;-143.83;100.00;62900.06;5110069;28;20187;-62
2022/07/22 02:33:14;;;;;;;6.55;6.25;;;;;;;-143.83;100.00;62900.06;5105122;28;20733;-62
2022/07/22 02:35:40;;;;;;;6.65;6.35;;;;;;;-143.83;100.00;62900.06;5114541;28;20036;-61
2022/07/22 02:38:06;;;;;;;6.80;6.50;;;;;;;-143.83;100.00;62900.06;5114069;28;20032;-62
2022/07/22 02:40:32;;;;;;;6.80;6.50;;;;;;;-143.83;100.00;62900.06;5102815;27;20117;-61
2022/07/22 02:42:58;;;;;;;6.40;6.10;;;;;;;-143.83;100.00;62900.06;5113325;27;20031;-62
2022/07/22 02:45:24;;;;;;;6.40;6.10;;;;;;;-143.83;100.00;62900.06;5115306;27;20475;-61
2022/07/22 02:47:54;;;;;;;6.50;6.20;;;;;;;-143.83;100.00;62900.06;5115800;27;20084;-61
2022/07/22 02:50:20;;;;;;;6.60;6.30;;;;;;;-143.83;100.00;62900.06;5113953;28;20374;-61
2022/07/22 02:52:46;;;;;;;6.40;6.10;;;;;;;-143.83;100.00;62900.06;5114149;28;20376;-62
2022/07/22 02:55:11;;;;;;;6.60;6.30;;;;;;;-143.83;100.00;62900.06;5111343;28;20027;-62
2022/07/22 02:57:38;;;;;;;6.45;6.15;;;;;;;-143.83;100.00;62900.06;5103033;28;20067;-61
2022/07/22 03:00:04;;;;;;;6.60;6.30;;;;;;;-143.83;100.00;62900.06;5113828;28;20023;-62
2022/07/22 03:02:30;;;;;;;6.80;6.50;;;;;;;-143.83;100.00;62900.06;5108194;27;20091;-61
2022/07/22 03:04:55;;;;;;;6.60;6.30;;;;;;;-143.83;100.00;62900.06;5096693;28;20024;-62
2022/07/22 03:07:21;;;;;;;6.70;6.40;;;;;;;-143.83;100.00;62900.06;5112429;28;20047;-62
2022/07/22 03:09:46;;;;;;;6.47;6.18;;;;;;;-143.83;100.00;62900.06;5113273;28;20015;-62
2022/07/22 03:12:12;;;;;;;6.70;6.40;;;;;;;-143.83;100.00;62900.06;5113634;28;20023;-62
2022/07/22 03:14:37;;;;;;;6.53;6.22;;;;;;;-143.83;100.00;62900.06;5125256;27;20538;-61
2022/07/22 03:17:03;;;;;;;6.88;6.57;;;;;;;-143.83;100.00;62900.06;5114914;27;20083;-62
2022/07/22 03:19:28;;;;;;;6.60;6.30;;;;;;;-143.83;100.00;62900.06;5116000;27;20020;-61
2022/07/22 03:21:54;;;;;;;6.72;6.43;;;;;;;-143.83;100.00;62900.06;5111386;27;20434;-61
2022/07/22 03:24:20;;;;;;;6.82;6.53;;;;;;;-143.83;100.00;62900.06;5113081;28;20027;-61
2022/07/22 03:26:45;;;;;;;6.60;6.30;;;;;;;-143.83;100.00;62900.06;5099373;28;20031;-61
2022/07/22 03:29:11;;;;;;;6.65;6.35;;;;;;;-143.83;100.00;62900.06;5113040;28;20023;-61
2022/07/22 03:31:36;;;;;;;6.70;6.40;;;;;;;-143.83;100.00;62900.06;5113353;28;20030;-61
2022/07/22 03:34:02;;;;;;;6.80;6.50;;;;;;;-143.83;100.00;62900.06;5113238;28;20364;-62
2022/07/22 03:36:31;;;;;;;6.93;6.63;;;;;;;-143.83;100.00;62900.06;5106244;27;20399;-61
2022/07/22 03:38:57;;;;;;;6.80;6.50;;;;;;;-143.83;100.00;62900.06;5113163;27;20016;-61
2022/07/22 03:41:23;;;;;;;6.70;6.40;;;;;;;-143.83;100.00;62900.06;5111687;28;20131;-61
2022/07/22 03:43:48;;;;;;;6.88;6.57;;;;;;;-143.83;100.00;62900.06;5110025;28;20397;-61
2022/07/22 03:46:14;;;;;;;6.80;6.50;;;;;;;-143.83;100.00;62900.06;5107469;28;20546;-62
2022/07/22 03:48:39;;;;;;;6.93;6.63;;;;;;;-143.83;100.00;62900.06;5101276;28;20027;-63
2022/07/22 03:51:05;;;;;;;7.10;6.80;;;;;;;-143.83;100.00;62900.06;5113086;28;20031;-62
2022/07/22 03:53:32;;;;;;;7.00;6.70;;;;;;;-143.83;100.00;62900.06;5115209;27;20027;-61
2022/07/22 03:55:58;;;;;;;7.10;6.80;;;;;;;-143.83;100.00;62900.06;5112235;28;20035;-61
2022/07/22 03:58:26;;;;;;;7.03;6.72;;;;;;;-143.83;100.00;62900.06;5112795;28;20038;-61
2022/07/22 04:00:52;;;;;;;7.20;6.90;;;;;;;-143.83;100.00;62900.06;5106850;28;20027;-62
2022/07/22 04:03:18;;;;;;;7.00;6.70;;;;;;;-143.83;100.00;62900.06;5110939;28;20393;-61
2022/07/22 04:05:45;;;;;;;7.15;6.85;;;;;;;-143.83;100.00;62900.06;5110677;28;20028;-62
2022/07/22 04:08:11;;;;;;;7.10;6.80;;;;;;;-143.83;100.00;62900.06;5109110;27;20039;-63
2022/07/22 04:10:37;;;;;;;7.03;6.72;;;;;;;-143.83;100.00;62900.06;5114135;27;20024;-61
2022/07/22 04:13:02;;;;;;;7.07;6.78;;;;;;;-143.83;100.00;62900.06;5106922;28;20112;-62
2022/07/22 04:15:28;;;;;;;7.10;6.80;;;;;;;-143.83;100.00;62900.06;5112216;28;20023;-62
2022/07/22 04:17:53;;;;;;;6.93;6.63;;;;;;;-143.83;100.00;62900.06;5112585;28;20019;-61
2022/07/22 04:20:19;;;;;;;6.90;6.60;;;;;;;-143.83;100.00;62900.06;5112455;28;20421;-62
2022/07/22 04:22:44;;;;;;;7.00;6.70;;;;;;;-143.83;100.00;62900.06;5109408;27;20378;-62
2022/07/22 04:25:10;;;;;;;7.15;6.85;;;;;;;-143.83;100.00;62900.06;5111772;27;20406;-62
2022/07/22 04:27:36;;;;;;;7.15;6.85;;;;;;;-143.83;100.00;62900.06;5111312;27;20083;-62
2022/07/22 04:30:02;;;;;;;7.20;6.90;;;;;;;-143.83;100.00;62900.06;5110972;28;20027;-62
2022/07/22 04:32:27;;;;;;;7.00;6.70;;;;;;;-143.83;100.00;62900.06;5111963;28;20020;-62
2022/07/22 04:34:53;;;;;;;7.13;6.82;;;;;;;-143.83;100.00;62900.06;5112097;28;20087;-62
2022/07/22 04:37:18;;;;;;;7.30;7.00;;;;;;;-143.83;100.00;62900.06;5107699;28;20102;-62
2022/07/22 04:39:44;;;;;;;7.10;6.80;;;;;;;-143.83;100.00;62900.06;5108909;28;20463;-61
2022/07/22 04:42:09;;;;;;;7.15;6.85;;;;;;;-143.83;100.00;62900.06;5111753;28;20043;-62
2022/07/22 04:44:35;;;;;;;7.25;6.95;;;;;;;-143.83;100.00;62900.06;5100788;28;20074;-62
2022/07/22 04:47:01;;;;;;;7.40;7.10;;;;;;;-143.83;100.00;62900.06;5108944;28;20027;-62
2022/07/22 04:49:26;;;;;;;7.40;7.10;;;;;;;-143.83;100.00;62900.06;5102155;28;20020;-61
2022/07/22 04:51:52;;;;;;;7.43;7.13;;;;;;;-143.83;100.00;62900.06;5107906;28;20126;-61
2022/07/22 04:54:17;;;;;;;7.30;7.00;;;;;;;-143.83;100.00;62900.06;5119951;28;20504;-61
2022/07/22 04:56:43;;;;;;;7.25;6.95;;;;;;;-143.83;100.00;62900.06;5112522;27;20039;-61
2022/07/22 04:59:08;;;;;;;7.50;7.20;;;;;;;-143.83;100.00;62900.06;5112050;28;20019;-61
2022/07/22 05:01:34;;;;;;;7.40;7.10;;;;;;;-143.83;100.00;62900.06;5105356;28;20468;-61
2022/07/22 05:03:59;;;;;;;7.30;7.00;;;;;;;-143.83;100.00;62900.06;5108866;28;20088;-62
2022/07/22 05:06:25;;;;;;;7.30;7.00;;;;;;;-143.83;100.00;62900.06;5103934;27;20145;-62
2022/07/22 05:08:50;;;;;;;7.20;6.90;;;;;;;-143.83;100.00;62900.06;5111198;28;20050;-62
2022/07/22 05:11:16;;;;;;;7.20;6.90;;;;;;;-143.83;100.00;62900.06;5110190;28;20105;-62
2022/07/22 05:13:41;;;;;;;7.40;7.10;;;;;;;-143.83;100.00;62900.06;5116222;27;20016;-61
2022/07/22 05:16:07;;;;;;;7.30;7.00;;;;;;;-143.83;100.00;62900.06;5110720;28;20082;-62
2022/07/22 05:18:34;;;;;;;7.40;7.10;;;;;;;-143.83;100.00;62900.06;5107254;28;20088;-62
2022/07/22 05:21:00;;;;;;;7.50;7.20;;;;;;;-143.83;100.00;62900.06;5114082;28;20501;-62
2022/07/22 05:23:25;;;;;;;7.60;7.30;;;;;;;-143.83;100.00;62900.06;5115340;28;20071;-62
2022/07/22 05:25:51;;;;;;;7.18;6.88;;;;;;;-143.83;100.00;62900.06;5114916;28;20016;-62
2022/07/22 05:28:16;;;;;;;7.53;7.22;;;;;;;-143.83;100.00;62900.06;5115155;28;20027;-62
2022/07/22 05:30:42;;;;;;;7.40;7.10;;;;;;;-143.83;100.00;62900.06;5115429;28;20020;-63
2022/07/22 05:33:07;;;;;;;7.25;6.95;;;;;;;-143.83;100.00;62900.06;5102242;28;20053;-62
2022/07/22 05:35:33;;;;;;;7.50;7.20;;;;;;;-143.83;100.00;62900.06;5101877;28;20513;-62
2022/07/22 05:37:58;;;;;;;7.30;7.00;;;;;;;-143.83;100.00;62900.06;5112903;28;20030;-62
2022/07/22 05:40:24;;;;;;;7.43;7.13;;;;;;;-143.83;100.00;62900.06;5107249;28;20050;-61
2022/07/22 05:42:49;;;;;;;7.40;7.10;;;;;;;-143.83;100.00;62900.06;5115110;28;20024;-62
2022/07/22 05:45:16;;;;;;;7.50;7.20;;;;;;;-143.83;100.00;62900.06;5115347;28;20026;-63
2022/07/22 05:47:42;;;;;;;7.53;7.22;;;;;;;-143.83;100.00;62900.06;5114931;28;20055;-63
2022/07/22 05:50:08;;;;;;;7.57;7.28;;;;;;;-143.83;100.00;62900.06;5115000;28;20058;-62
2022/07/22 05:52:36;;;;;;;7.50;7.20;;;;;;;-143.83;100.00;62900.06;5097007;28;20031;-61
2022/07/22 05:55:02;;;;;;;7.43;7.13;;;;;;;-143.83;100.00;62900.06;5101465;28;20347;-62
2022/07/22 05:57:28;;;;;;;7.50;7.20;;;;;;;-143.83;100.00;62900.06;5114939;28;20024;-61
2022/07/22 05:59:53;;;;;;;7.40;7.10;;;;;;;-143.83;100.00;62900.06;5115088;28;20024;-62
2022/07/22 06:02:19;;;;;;;7.57;7.28;;;;;;;-143.83;100.00;62900.06;5118114;27;20026;-63
2022/07/22 06:04:44;;;;;;;7.30;7.00;;;;;;;-143.83;100.00;62900.06;5109220;27;20109;-62
2022/07/22 06:07:10;;;;;;;7.25;6.95;;;;;;;-143.83;100.00;62900.06;5107993;28;20505;-62
2022/07/22 06:09:36;;;;;;;7.10;6.80;;;;;;;-143.83;100.00;62900.06;5101365;28;20076;-62
2022/07/22 06:12:01;;;;;;;7.25;6.95;;;;;;;-143.83;100.00;62900.06;5114774;28;20576;-62
2022/07/22 06:14:26;;;;;;;7.60;7.30;;;;;;;-143.83;100.00;62900.06;5114625;28;20024;-61
2022/07/22 06:16:52;;;;;;;7.10;6.80;;;;;;;-143.83;100.00;62900.06;5114956;28;20093;-62
2022/07/22 06:19:17;;;;;;;7.28;6.97;;;;;;;-143.83;100.00;62900.06;5114163;28;20701;-62
2022/07/22 06:21:43;;;;;;;7.50;7.20;;;;;;;-143.83;100.00;62900.06;5113176;28;20054;-62
2022/07/22 06:24:08;;;;;;;7.60;7.30;;;;;;;-143.83;100.00;62900.06;5100652;28;20118;-62
2022/07/22 06:26:34;;;;;;;7.40;7.10;;;;;;;-143.83;100.00;62900.06;5101344;28;20031;-63
2022/07/22 06:29:00;;;;;;;7.47;7.18;;;;;;;-143.83;100.00;62900.06;5110601;28;20039;-63
2022/07/22 06:31:25;;;;;;;7.35;7.05;;;;;;;-143.83;100.00;62900.06;5114610;28;20101;-62
2022/07/22 06:33:51;;;;;;;7.72;7.43;;;;;;;-143.83;100.00;62900.06;5114434;28;20463;-62
2022/07/22 06:36:17;;;;;;;7.40;7.10;;;;;;;-143.83;100.00;62900.06;5113873;28;20027;-62
2022/07/22 06:38:43;;;;;;;7.60;7.30;;;;;;;-143.83;100.00;62900.06;5114120;28;20390;-62
2022/07/22 06:41:10;;;;;;;7.30;7.00;;;;;;;-143.83;100.00;62900.06;5100198;28;20119;-61
2022/07/22 06:43:35;;;;;;;7.70;7.40;;;;;;;-143.83;100.00;62900.06;5114027;28;20752;-63
2022/07/22 06:46:01;;;;;;;7.68;7.38;;;;;;;-143.83;100.00;62900.06;5114383;28;20035;-61
2022/07/22 06:48:26;;;;;;;7.70;7.40;;;;;;;-143.83;100.00;62900.06;5104597;28;20487;-63
2022/07/22 06:50:52;;;;;;;7.35;7.05;;;;;;;-143.83;100.00;62900.06;5112998;28;20019;-62
2022/07/22 06:53:17;;;;;;;7.72;7.43;;;;;;;-143.83;100.00;62900.06;5113594;28;20455;-62
2022/07/22 06:55:43;;;;;;;7.45;7.15;;;;;;;-143.83;100.00;62900.06;5105461;28;20115;-62
2022/07/22 06:58:09;;;;;;;7.38;7.07;;;;;;;-143.83;100.00;62900.06;5107979;28;20015;-62
2022/07/22 07:00:34;;;;;;;7.50;7.20;;;;;;;-143.83;100.00;62900.06;5113045;28;20092;-63
2022/07/22 07:03:00;;;;;;;7.53;7.22;;;;;;;-143.83;100.00;62900.06;5113243;28;20475;-63
2022/07/22 07:05:28;;;;;;;7.20;6.90;;;;;;;-143.83;100.00;62900.06;5113620;27;20031;-62
2022/07/22 07:07:54;;;;;;;7.10;6.80;;;;;;;-143.83;100.00;62900.06;5101343;27;20379;-62
2022/07/22 07:10:20;;;;;;;7.40;7.10;;;;;;;-143.83;100.00;62900.06;5112406;28;20107;-62
2022/07/22 07:12:45;;;;;;;7.30;7.00;;;;;;;-143.83;100.00;62900.06;5113303;28;20562;-62
2022/07/22 07:15:11;;;;;;;7.35;7.05;;;;;;;-143.83;100.00;62900.06;5113490;28;20020;-62
2022/07/22 07:17:37;;;;;;;7.25;6.95;;;;;;;-143.83;100.00;62900.06;5104785;28;20080;-61
2022/07/22 07:20:04;;;;;;;7.30;7.00;;;;;;;-143.83;100.00;62900.06;5113758;27;20485;-63
2022/07/22 07:22:29;;;;;;;7.28;6.97;;;;;;;-143.83;100.00;62900.06;5113226;27;20023;-62
2022/07/22 07:24:55;;;;;;;7.40;7.10;;;;;;;-143.83;100.00;62900.06;5113116;27;20031;-62
2022/07/22 07:27:20;;;;;;;7.07;6.78;;;;;;;-143.83;100.00;62900.06;5101962;28;20424;-63
2022/07/22 07:29:46;;;;;;;7.10;6.80;;;;;;;-143.83;100.00;62900.06;5096806;28;20038;-62
2022/07/22 07:32:11;;;;;;;7.00;6.70;;;;;;;-143.83;100.00;62900.06;5112933;28;20030;-61
2022/07/22 07:34:38;;;;;;;7.18;6.88;;;;;;;-143.83;100.00;62900.06;5099188;28;20028;-63
2022/07/22 07:37:04;;;;;;;7.18;6.88;;;;;;;-143.83;100.00;62900.06;5112882;28;20039;-61
2022/07/22 07:39:29;;;;;;;7.10;6.80;;;;;;;-143.83;100.00;62900.06;5112866;28;20020;-63
2022/07/22 07:41:55;;;;;;;7.10;6.80;;;;;;;-143.83;100.00;62900.06;5112733;28;20504;-62
2022/07/22 07:44:20;;;;;;;7.20;6.90;;;;;;;-143.83;100.00;62900.06;5098469;28;20038;-62
2022/07/22 07:46:46;;;;;;;7.30;7.00;;;;;;;-143.83;100.00;62900.06;5112711;28;20024;-62
2022/07/22 07:49:12;;;;;;;7.10;6.80;;;;;;;-143.83;100.00;62900.06;5112693;28;20035;-62
2022/07/22 07:51:37;;;;;;;6.88;6.57;;;;;;;-143.83;100.00;62900.06;5099471;28;20181;-62
2022/07/22 07:54:03;;;;;;;7.18;6.88;;;;;;;-143.83;100.00;62900.06;5092571;28;20034;-63
2022/07/22 07:56:28;;;;;;;6.80;6.50;;;;;;;-143.83;100.00;62900.06;5124695;27;20027;-62
2022/07/22 07:58:54;;;;;;;7.00;6.70;;;;;;;-143.83;100.00;62900.06;5112889;28;20049;-61
2022/07/22 08:01:19;;;;;;;6.93;6.63;;;;;;;-143.83;100.00;62900.06;5111738;28;20103;-62
2022/07/22 08:03:45;;;;;;;6.90;6.60;;;;;;;-143.83;100.00;62900.06;5112690;28;20645;-61
2022/07/22 08:06:10;;;;;;;6.90;6.60;;;;;;;-143.83;100.00;62900.06;5113076;28;20096;-62
2022/07/22 08:08:36;;;;;;;7.00;6.70;;;;;;;-143.83;100.00;62900.06;5098708;28;20020;-63
2022/07/22 08:11:01;;;;;;;6.90;6.60;;;;;;;-143.83;100.00;62900.06;5093751;28;20023;-62
2022/07/22 08:13:27;;;;;;;6.90;6.60;;;;;;;-143.83;100.00;62900.06;5103979;28;20049;-62
2022/07/22 08:15:53;;;;;;;6.85;6.55;;;;;;;-143.83;100.00;62900.06;5112492;28;20019;-62
2022/07/22 08:18:18;;;;;;;6.70;6.40;;;;;;;-143.83;100.00;62900.06;5112513;28;20028;-62
2022/07/22 08:20:44;;;;;;;6.90;6.60;;;;;;;-143.83;100.00;62900.06;5112035;28;20024;-62
2022/07/22 08:23:10;;;;;;;6.70;6.40;;;;;;;-143.83;100.00;62900.06;5109638;28;20028;-61
2022/07/22 08:25:35;;;;;;;6.85;6.55;;;;;;;-143.83;100.00;62900.06;5105849;28;20380;-63
2022/07/22 08:28:01;;;;;;;7.03;6.72;;;;;;;-143.83;100.00;62900.06;5105507;28;20028;-61
2022/07/22 08:30:28;;;;;;;6.80;6.50;;;;;;;-143.83;100.00;62900.06;5099964;28;20027;-61
2022/07/22 08:32:54;;;;;;;6.97;6.68;;;;;;;-143.83;100.00;62900.06;5112167;28;20376;-62
2022/07/22 08:35:20;;;;;;;6.90;6.60;;;;;;;-143.83;100.00;62900.06;5112333;28;20102;-62
2022/07/22 08:37:47;;;;;;;7.00;6.70;;;;;;;-143.83;100.00;62900.06;5112185;28;20597;-62
2022/07/22 08:40:13;;;;;;;6.75;6.45;;;;;;;-143.83;100.00;62900.06;5111966;28;20041;-61
2022/07/22 08:42:40;;;;;;;6.90;6.60;;;;;;;-143.83;100.00;62900.06;5102376;28;20032;-63
2022/07/22 08:45:08;;;;;;;6.80;6.50;;;;;;;-143.83;100.00;62900.06;5116447;28;20104;-62
2022/07/22 08:47:33;;;;;;;6.90;6.60;;;;;;;-143.83;100.00;62900.06;5116156;28;20055;-62
2022/07/22 08:49:59;;;;;;;7.15;6.85;;;;;;;-143.83;100.00;62900.06;5115915;28;20492;-63
2022/07/22 08:52:24;;;;;;;6.88;6.57;;;;;;;-143.83;100.00;62900.06;5130262;27;20027;-62
2022/07/22 08:54:50;;;;;;;6.95;6.65;;;;;;;-143.83;100.00;62900.06;5116367;28;20019;-62
2022/07/22 08:57:17;;;;;;;6.80;6.50;;;;;;;-143.83;100.00;62900.06;5111602;28;20411;-64
2022/07/22 08:59:54;;;;;;;6.80;6.50;;;;;;;-143.83;100.00;62900.06;5116254;28;20137;-63
2022/07/22 09:02:21;;;;;;;6.90;6.60;;;;;;;-143.83;100.00;62900.06;5116349;28;20442;-62
2022/07/22 09:05:01;;;;;;;6.88;6.57;;;;;;;-143.83;100.00;62900.06;5116147;28;20016;-63
2022/07/22 09:07:38;;;;;;;6.80;6.50;;;;;;;-143.83;100.00;62900.06;5116169;28;20487;-63
2022/07/22 09:10:07;;;;;;;7.00;6.70;;;;;;;-143.83;100.00;62900.06;5116399;28;20035;-63
2022/07/22 09:12:34;;;;;;;7.10;6.80;;;;;;;-143.83;100.00;62900.06;5116314;28;20401;-62
2022/07/22 09:15:02;;;;;;;6.90;6.60;;;;;;;-143.83;100.00;62900.06;5115926;28;20032;-62
2022/07/22 09:17:36;;;;;;;6.60;6.30;;;;;;;-143.83;100.00;62900.06;5109922;28;20520;-61
2022/07/22 09:20:03;;;;;;;;;;;;;;;-143.83;100.00;62900.06;5116522;28;20023;-62
2022/07/22 09:22:44;;;;;;;6.60;6.30;;;;;;;-143.83;100.00;62900.06;5112912;28;19919;-62
2022/07/22 09:25:23;;;;;;;6.65;6.35;;;;;;;-143.83;100.00;62900.06;5108387;28;20020;-62
2022/07/22 09:27:51;;;;;;;6.80;6.50;;;;;;;-143.83;100.00;62900.06;5102375;28;20031;-63
2022/07/22 09:30:23;;;;;;;6.70;6.40;;;;;;;-143.83;100.00;62900.06;5114190;28;20452;-63
2022/07/22 09:32:50;;;;;;;6.90;6.60;;;;;;;-143.83;100.00;62900.06;5108643;28;20028;-62
2022/07/22 09:35:16;;;;;;;6.90;6.60;;;;;;;-143.83;100.00;62900.06;5115104;28;20043;-64
2022/07/22 09:37:51;;;;;;;6.78;6.47;;;;;;;-143.83;100.00;62900.06;5101523;28;20036;-62
2022/07/22 09:40:23;;;;;;;6.70;6.40;;;;;;;-143.83;100.00;62900.06;5115261;28;20389;-63
2022/07/22 09:42:52;;;;;;;6.97;6.68;;;;;;;-143.83;100.00;62900.06;5102528;28;20368;-61
2022/07/22 09:45:19;;;;;;;6.80;6.50;;;;;;;-143.83;100.00;62900.06;5129506;27;20054;-61
2022/07/22 09:47:45;;;;;;;6.60;6.30;;;;;;;-143.83;100.00;62900.06;5121805;27;20027;-62
2022/07/22 09:50:24;;;;;;;6.50;6.20;;;;;;;-143.83;100.00;62900.06;5109612;27;20105;-62
2022/07/22 09:52:52;;;;;;;6.60;6.30;;;;;;;-143.83;100.00;62900.06;5113635;28;20028;-62
2022/07/22 09:55:19;;;;;;;6.80;6.50;;;;;;;-143.83;100.00;62900.06;5115142;28;20580;-61
2022/07/22 09:57:45;;;;;;;6.85;6.55;;;;;;;-143.83;100.00;62900.06;5114841;28;20386;-63
2022/07/22 10:00:17;;;;;;;6.70;6.40;;;;;;;-143.83;100.00;62900.06;5115168;28;20023;-62
2022/07/22 10:02:57;;;;;;;6.63;6.32;;;;;;;-143.83;100.00;62900.06;5114968;28;20015;-61
2022/07/22 10:05:25;;;;;;;6.90;6.60;;;;;;;-143.83;100.00;62900.06;5114950;28;20089;-62
2022/07/22 10:07:52;;;;;;;6.90;6.60;;;;;;;-143.83;100.00;62900.06;5114080;28;20097;-62
2022/07/22 10:10:20;;;;;;;6.70;6.40;;;;;;;-143.83;100.00;62900.06;5114496;28;20037;-62
2022/07/22 10:12:49;;;;;;;6.78;6.47;;;;;;;-143.83;100.00;62900.06;5114859;28;20069;-62
2022/07/22 10:15:15;;;;;;;6.80;6.50;;;;;;;-143.83;100.00;62900.06;5128488;27;20029;-62
2022/07/22 10:17:45;;;;;;;6.78;6.47;;;;;;;-143.83;100.00;62900.06;5118166;27;20035;-62
2022/07/22 10:20:12;;;;;;;6.65;6.35;;;;;;;-143.83;100.00;62900.06;5114511;27;20016;-62
2022/07/22 10:22:44;;;;;;;6.80;6.50;;;;;;;-143.83;100.00;62900.06;5114202;28;20039;-63
2022/07/22 10:25:12;;;;;;;6.70;6.40;;;;;;;-143.83;100.00;62900.06;5103366;28;20032;-62
2022/07/22 10:27:57;;;;;;;6.53;6.22;;;;;;;-143.83;100.00;62900.06;5114093;28;20094;-62
2022/07/22 10:30:43;;;;;;;6.80;6.50;;;;;;;-143.83;100.00;62900.06;5114269;28;20452;-63
2022/07/22 10:33:14;;;;;;;6.80;6.50;;;;;;;-143.83;100.00;62900.06;5113571;28;20039;-61
2022/07/22 10:35:45;;;;;;;6.60;6.30;;;;;;;-143.83;100.00;62900.06;5114343;28;20024;-61
2022/07/22 10:38:13;;;;;;;6.70;6.40;;;;;;;-143.83;100.00;62900.06;5114133;28;20042;-62
2022/07/22 10:41:09;;;;;;;6.80;6.50;;;;;;;-143.83;100.00;62900.06;5106844;28;20123;-62
2022/07/22 10:43:41;;;;;;;6.45;6.15;;;;;;;-143.83;100.00;62900.06;5113928;27;20118;-62
2022/07/22 10:46:06;;;;;;;6.50;6.20;;;;;;;-143.83;100.00;62900.06;5134362;27;20019;-62
2022/07/22 10:48:32;;;;;;;6.60;6.30;;;;;;;-143.83;100.00;62900.06;5117488;27;20023;-62
2022/07/22 10:51:11;;;;;;;6.68;6.38;;;;;;;-143.83;100.00;62900.06;5114043;28;20425;-63
2022/07/22 10:53:46;;;;;;;6.40;6.10;;;;;;;-143.83;100.00;62900.06;5113561;28;20023;-62
2022/07/22 10:56:21;;;;;;;6.72;6.43;;;;;;;-143.83;100.00;62900.06;5108686;28;20138;-62
2022/07/22 10:58:54;;;;;;;6.63;6.32;;;;;;;-143.83;100.00;62900.06;5100557;28;20016;-62
2022/07/22 11:01:22;;;;;;;6.53;6.22;;;;;;;-143.83;100.00;62900.06;5113767;28;20031;-62
2022/07/22 11:03:49;;;;;;;6.50;6.20;;;;;;;-143.83;100.00;62900.06;5113373;27;20023;-62
2022/07/22 11:06:20;;;;;;;6.60;6.30;;;;;;;-143.83;100.00;62900.06;5112764;28;20020;-62
2022/07/22 11:08:49;;;;;;;6.78;6.47;;;;;;;-143.83;100.00;62900.06;5113612;28;20375;-62